sensor_id;sensor_type;location;lat;lon;timestamp;P1;durP1;ratioP1;P2;durP2;ratioP2
50683;SDS011;36654;45.042;38.994;2022-07-23T00:00:57;6.40;;;3.30;;
50683;SDS011;36654;45.042;38.994;2022-07-23T00:03:23;5.80;;;3.17;;
50683;SDS011;36654;45.042;38.994;2022-07-23T00:05:49;6.28;;;3.08;;
50683;SDS011;36654;45.042;38.994;2022-07-23T00:08:14;6.30;;;3.20;;
50683;SDS011;36654;45.042;38.994;2022-07-23T00:10:40;5.90;;;2.85;;
50683;SDS011;36654;45.042;38.994;2022-07-23T00:13:06;5.65;;;2.83;;
50683;SDS011;36654;45.042;38.994;2022-07-23T00:15:31;6.40;;;3.20;;
50683;SDS011;36654;45.042;38.994;2022-07-23T00:17:57;5.85;;;2.85;;
50683;SDS011;36654;45.042;38.994;2022-07-23T00:20:23;5.40;;;2.90;;
50683;SDS011;36654;45.042;38.994;2022-07-23T00:22:49;6.03;;;2.60;;
50683;SDS011;36654;45.042;38.994;2022-07-23T00:25:16;6.47;;;2.70;;
50683;SDS011;36654;45.042;38.994;2022-07-23T00:27:42;6.60;;;3.00;;
50683;SDS011;36654;45.042;38.994;2022-07-23T00:30:08;6.65;;;2.92;;
50683;SDS011;36654;45.042;38.994;2022-07-23T00:32:47;7.88;;;3.00;;
50683;SDS011;36654;45.042;38.994;2022-07-23T00:35:19;5.40;;;3.03;;
50683;SDS011;36654;45.042;38.994;2022-07-23T00:37:46;5.68;;;2.78;;
50683;SDS011;36654;45.042;38.994;2022-07-23T00:40:12;5.82;;;3.00;;
50683;SDS011;36654;45.042;38.994;2022-07-23T00:42:38;6.97;;;2.78;;
50683;SDS011;36654;45.042;38.994;2022-07-23T00:45:04;6.38;;;2.95;;
50683;SDS011;36654;45.042;38.994;2022-07-23T00:47:31;7.30;;;3.08;;
50683;SDS011;36654;45.042;38.994;2022-07-23T00:49:57;7.53;;;3.15;;
50683;SDS011;36654;45.042;38.994;2022-07-23T00:52:23;5.93;;;3.03;;
50683;SDS011;36654;45.042;38.994;2022-07-23T00:54:49;5.35;;;2.70;;
50683;SDS011;36654;45.042;38.994;2022-07-23T00:57:15;4.93;;;2.88;;
50683;SDS011;36654;45.042;38.994;2022-07-23T00:59:41;6.97;;;3.80;;
50683;SDS011;36654;45.042;38.994;2022-07-23T01:02:07;8.93;;;3.40;;
50683;SDS011;36654;45.042;38.994;2022-07-23T01:04:33;6.85;;;3.22;;
50683;SDS011;36654;45.042;38.994;2022-07-23T01:06:58;6.72;;;4.15;;
50683;SDS011;36654;45.042;38.994;2022-07-23T01:09:26;6.75;;;3.85;;
50683;SDS011;36654;45.042;38.994;2022-07-23T01:11:51;7.28;;;4.10;;
50683;SDS011;36654;45.042;38.994;2022-07-23T01:14:20;7.20;;;3.72;;
50683;SDS011;36654;45.042;38.994;2022-07-23T01:16:46;9.07;;;4.18;;
50683;SDS011;36654;45.042;38.994;2022-07-23T01:19:13;8.98;;;4.85;;
50683;SDS011;36654;45.042;38.994;2022-07-23T01:21:40;9.35;;;4.90;;
50683;SDS011;36654;45.042;38.994;2022-07-23T01:24:08;8.60;;;4.75;;
50683;SDS011;36654;45.042;38.994;2022-07-23T01:26:35;7.72;;;4.68;;
50683;SDS011;36654;45.042;38.994;2022-07-23T01:29:02;7.22;;;4.75;;
50683;SDS011;36654;45.042;38.994;2022-07-23T01:31:28;9.88;;;5.40;;
50683;SDS011;36654;45.042;38.994;2022-07-23T01:33:54;8.95;;;5.65;;
50683;SDS011;36654;45.042;38.994;2022-07-23T01:36:20;7.72;;;4.82;;
50683;SDS011;36654;45.042;38.994;2022-07-23T01:38:47;8.50;;;4.93;;
50683;SDS011;36654;45.042;38.994;2022-07-23T01:41:13;9.95;;;5.15;;
50683;SDS011;36654;45.042;38.994;2022-07-23T01:43:38;7.80;;;5.10;;
50683;SDS011;36654;45.042;38.994;2022-07-23T01:46:04;7.05;;;4.43;;
50683;SDS011;36654;45.042;38.994;2022-07-23T01:48:30;6.72;;;4.53;;
50683;SDS011;36654;45.042;38.994;2022-07-23T01:50:55;7.72;;;4.88;;
50683;SDS011;36654;45.042;38.994;2022-07-23T01:53:21;9.02;;;5.13;;
50683;SDS011;36654;45.042;38.994;2022-07-23T01:55:49;9.77;;;5.13;;
50683;SDS011;36654;45.042;38.994;2022-07-23T01:58:14;8.85;;;4.70;;
50683;SDS011;36654;45.042;38.994;2022-07-23T02:00:40;11.32;;;5.53;;
50683;SDS011;36654;45.042;38.994;2022-07-23T02:03:06;8.73;;;5.20;;
50683;SDS011;36654;45.042;38.994;2022-07-23T02:05:31;11.00;;;4.80;;
50683;SDS011;36654;45.042;38.994;2022-07-23T02:07:57;9.80;;;5.35;;
50683;SDS011;36654;45.042;38.994;2022-07-23T02:10:24;9.10;;;5.00;;
50683;SDS011;36654;45.042;38.994;2022-07-23T02:12:50;9.32;;;5.28;;
50683;SDS011;36654;45.042;38.994;2022-07-23T02:15:16;9.85;;;5.28;;
50683;SDS011;36654;45.042;38.994;2022-07-23T02:17:41;7.57;;;4.78;;
50683;SDS011;36654;45.042;38.994;2022-07-23T02:20:08;11.90;;;5.07;;
50683;SDS011;36654;45.042;38.994;2022-07-23T02:22:34;10.70;;;5.15;;
50683;SDS011;36654;45.042;38.994;2022-07-23T02:25:01;7.30;;;4.38;;
50683;SDS011;36654;45.042;38.994;2022-07-23T02:27:27;10.05;;;4.82;;
50683;SDS011;36654;45.042;38.994;2022-07-23T02:29:53;7.55;;;4.05;;
50683;SDS011;36654;45.042;38.994;2022-07-23T02:32:19;8.95;;;4.00;;
50683;SDS011;36654;45.042;38.994;2022-07-23T02:34:46;9.35;;;4.35;;
50683;SDS011;36654;45.042;38.994;2022-07-23T02:37:12;10.88;;;4.60;;
50683;SDS011;36654;45.042;38.994;2022-07-23T02:39:38;9.52;;;4.35;;
50683;SDS011;36654;45.042;38.994;2022-07-23T02:42:04;12.10;;;5.03;;
50683;SDS011;36654;45.042;38.994;2022-07-23T02:44:30;8.18;;;4.30;;
50683;SDS011;36654;45.042;38.994;2022-07-23T02:46:56;8.00;;;3.83;;
50683;SDS011;36654;45.042;38.994;2022-07-23T02:49:22;8.07;;;3.78;;
50683;SDS011;36654;45.042;38.994;2022-07-23T02:51:47;8.05;;;4.05;;
50683;SDS011;36654;45.042;38.994;2022-07-23T02:54:13;8.27;;;4.10;;
50683;SDS011;36654;45.042;38.994;2022-07-23T02:56:39;9.68;;;3.95;;
50683;SDS011;36654;45.042;38.994;2022-07-23T02:59:04;7.68;;;3.83;;
50683;SDS011;36654;45.042;38.994;2022-07-23T03:01:30;6.80;;;3.85;;
50683;SDS011;36654;45.042;38.994;2022-07-23T03:03:56;7.65;;;3.30;;
50683;SDS011;36654;45.042;38.994;2022-07-23T03:06:21;7.95;;;3.75;;
50683;SDS011;36654;45.042;38.994;2022-07-23T03:08:47;8.02;;;3.45;;
50683;SDS011;36654;45.042;38.994;2022-07-23T03:11:13;7.03;;;3.38;;
50683;SDS011;36654;45.042;38.994;2022-07-23T03:13:39;7.78;;;3.40;;
50683;SDS011;36654;45.042;38.994;2022-07-23T03:16:05;7.55;;;3.70;;
50683;SDS011;36654;45.042;38.994;2022-07-23T03:18:31;7.55;;;3.50;;
50683;SDS011;36654;45.042;38.994;2022-07-23T03:20:57;7.63;;;3.42;;
50683;SDS011;36654;45.042;38.994;2022-07-23T03:23:23;7.05;;;3.40;;
50683;SDS011;36654;45.042;38.994;2022-07-23T03:25:48;6.90;;;3.47;;
50683;SDS011;36654;45.042;38.994;2022-07-23T03:28:14;7.20;;;3.40;;
50683;SDS011;36654;45.042;38.994;2022-07-23T03:30:43;7.13;;;3.55;;
50683;SDS011;36654;45.042;38.994;2022-07-23T03:33:12;9.02;;;3.55;;
50683;SDS011;36654;45.042;38.994;2022-07-23T03:35:38;6.50;;;3.75;;
50683;SDS011;36654;45.042;38.994;2022-07-23T03:38:04;6.97;;;3.55;;
50683;SDS011;36654;45.042;38.994;2022-07-23T03:40:30;7.85;;;3.30;;
50683;SDS011;36654;45.042;38.994;2022-07-23T03:42:55;7.10;;;3.28;;
50683;SDS011;36654;45.042;38.994;2022-07-23T03:45:21;7.82;;;3.90;;
50683;SDS011;36654;45.042;38.994;2022-07-23T03:47:47;7.25;;;4.45;;
50683;SDS011;36654;45.042;38.994;2022-07-23T03:50:12;8.48;;;3.80;;
50683;SDS011;36654;45.042;38.994;2022-07-23T03:52:38;7.35;;;3.58;;
50683;SDS011;36654;45.042;38.994;2022-07-23T03:55:04;6.10;;;3.70;;
50683;SDS011;36654;45.042;38.994;2022-07-23T03:57:30;8.25;;;3.85;;
50683;SDS011;36654;45.042;38.994;2022-07-23T03:59:56;6.43;;;3.22;;
50683;SDS011;36654;45.042;38.994;2022-07-23T04:02:21;5.95;;;3.55;;
50683;SDS011;36654;45.042;38.994;2022-07-23T04:04:47;7.22;;;3.38;;
50683;SDS011;36654;45.042;38.994;2022-07-23T04:07:13;6.00;;;3.40;;
50683;SDS011;36654;45.042;38.994;2022-07-23T04:09:39;7.53;;;3.47;;
50683;SDS011;36654;45.042;38.994;2022-07-23T04:12:06;6.93;;;3.50;;
50683;SDS011;36654;45.042;38.994;2022-07-23T04:14:32;6.40;;;3.55;;
50683;SDS011;36654;45.042;38.994;2022-07-23T04:16:58;6.88;;;3.70;;
50683;SDS011;36654;45.042;38.994;2022-07-23T04:19:25;7.18;;;3.63;;
50683;SDS011;36654;45.042;38.994;2022-07-23T04:21:51;8.52;;;3.83;;
50683;SDS011;36654;45.042;38.994;2022-07-23T04:24:17;7.95;;;3.90;;
50683;SDS011;36654;45.042;38.994;2022-07-23T04:26:43;6.45;;;3.33;;
50683;SDS011;36654;45.042;38.994;2022-07-23T04:29:09;6.63;;;3.63;;
50683;SDS011;36654;45.042;38.994;2022-07-23T04:31:35;6.63;;;3.83;;
50683;SDS011;36654;45.042;38.994;2022-07-23T04:34:01;7.32;;;4.07;;
50683;SDS011;36654;45.042;38.994;2022-07-23T04:36:26;6.68;;;3.28;;
50683;SDS011;36654;45.042;38.994;2022-07-23T04:38:52;8.15;;;4.40;;
50683;SDS011;36654;45.042;38.994;2022-07-23T04:41:18;7.07;;;3.67;;
50683;SDS011;36654;45.042;38.994;2022-07-23T04:43:44;5.57;;;3.13;;
50683;SDS011;36654;45.042;38.994;2022-07-23T04:46:10;8.65;;;3.83;;
50683;SDS011;36654;45.042;38.994;2022-07-23T04:48:36;7.50;;;3.50;;
50683;SDS011;36654;45.042;38.994;2022-07-23T04:51:02;5.88;;;3.35;;
50683;SDS011;36654;45.042;38.994;2022-07-23T04:53:28;7.65;;;3.65;;
50683;SDS011;36654;45.042;38.994;2022-07-23T04:55:54;5.28;;;2.95;;
50683;SDS011;36654;45.042;38.994;2022-07-23T04:58:20;6.70;;;3.60;;
50683;SDS011;36654;45.042;38.994;2022-07-23T05:00:45;7.30;;;3.83;;
50683;SDS011;36654;45.042;38.994;2022-07-23T05:03:11;6.85;;;3.70;;
50683;SDS011;36654;45.042;38.994;2022-07-23T05:05:37;7.65;;;3.67;;
50683;SDS011;36654;45.042;38.994;2022-07-23T05:08:03;6.55;;;3.75;;
50683;SDS011;36654;45.042;38.994;2022-07-23T05:10:29;7.32;;;4.03;;
50683;SDS011;36654;45.042;38.994;2022-07-23T05:12:54;6.13;;;3.75;;
50683;SDS011;36654;45.042;38.994;2022-07-23T05:15:20;7.00;;;3.95;;
50683;SDS011;36654;45.042;38.994;2022-07-23T05:17:46;7.03;;;3.72;;
50683;SDS011;36654;45.042;38.994;2022-07-23T05:20:12;7.43;;;3.70;;
50683;SDS011;36654;45.042;38.994;2022-07-23T05:22:38;7.65;;;3.58;;
50683;SDS011;36654;45.042;38.994;2022-07-23T05:25:04;8.02;;;3.67;;
50683;SDS011;36654;45.042;38.994;2022-07-23T05:27:31;9.27;;;3.80;;
50683;SDS011;36654;45.042;38.994;2022-07-23T05:29:56;8.13;;;3.67;;
50683;SDS011;36654;45.042;38.994;2022-07-23T05:32:22;8.20;;;4.18;;
50683;SDS011;36654;45.042;38.994;2022-07-23T05:34:48;5.93;;;3.55;;
50683;SDS011;36654;45.042;38.994;2022-07-23T05:37:15;8.15;;;3.90;;
50683;SDS011;36654;45.042;38.994;2022-07-23T05:39:40;7.78;;;3.75;;
50683;SDS011;36654;45.042;38.994;2022-07-23T05:42:06;7.22;;;3.20;;
50683;SDS011;36654;45.042;38.994;2022-07-23T05:44:32;7.22;;;3.47;;
50683;SDS011;36654;45.042;38.994;2022-07-23T05:46:58;5.60;;;3.50;;
50683;SDS011;36654;45.042;38.994;2022-07-23T05:49:24;5.43;;;3.58;;
50683;SDS011;36654;45.042;38.994;2022-07-23T05:51:50;6.15;;;3.33;;
50683;SDS011;36654;45.042;38.994;2022-07-23T05:54:16;7.63;;;3.80;;
50683;SDS011;36654;45.042;38.994;2022-07-23T05:56:41;7.35;;;3.80;;
50683;SDS011;36654;45.042;38.994;2022-07-23T05:59:07;6.35;;;3.83;;
50683;SDS011;36654;45.042;38.994;2022-07-23T06:01:33;7.40;;;3.75;;
50683;SDS011;36654;45.042;38.994;2022-07-23T06:03:59;6.40;;;3.78;;
50683;SDS011;36654;45.042;38.994;2022-07-23T06:06:24;7.90;;;4.05;;
50683;SDS011;36654;45.042;38.994;2022-07-23T06:08:50;7.38;;;4.45;;
50683;SDS011;36654;45.042;38.994;2022-07-23T06:11:16;6.97;;;3.90;;
50683;SDS011;36654;45.042;38.994;2022-07-23T06:13:41;7.53;;;4.05;;
50683;SDS011;36654;45.042;38.994;2022-07-23T06:16:07;6.15;;;3.78;;
50683;SDS011;36654;45.042;38.994;2022-07-23T06:18:33;6.72;;;3.60;;
50683;SDS011;36654;45.042;38.994;2022-07-23T06:20:58;7.07;;;3.92;;
50683;SDS011;36654;45.042;38.994;2022-07-23T06:23:24;8.02;;;3.70;;
50683;SDS011;36654;45.042;38.994;2022-07-23T06:25:49;8.00;;;3.88;;
50683;SDS011;36654;45.042;38.994;2022-07-23T06:28:15;5.95;;;3.65;;
50683;SDS011;36654;45.042;38.994;2022-07-23T06:30:41;5.93;;;3.20;;
50683;SDS011;36654;45.042;38.994;2022-07-23T06:33:07;5.68;;;3.20;;
50683;SDS011;36654;45.042;38.994;2022-07-23T06:35:32;5.95;;;3.70;;
50683;SDS011;36654;45.042;38.994;2022-07-23T06:37:58;6.70;;;3.60;;
50683;SDS011;36654;45.042;38.994;2022-07-23T06:40:24;8.20;;;4.72;;
50683;SDS011;36654;45.042;38.994;2022-07-23T06:42:50;6.28;;;3.55;;
50683;SDS011;36654;45.042;38.994;2022-07-23T06:45:16;6.18;;;3.30;;
50683;SDS011;36654;45.042;38.994;2022-07-23T06:47:42;6.13;;;3.90;;
50683;SDS011;36654;45.042;38.994;2022-07-23T06:50:07;5.97;;;3.80;;
50683;SDS011;36654;45.042;38.994;2022-07-23T06:52:33;7.28;;;4.10;;
50683;SDS011;36654;45.042;38.994;2022-07-23T06:54:59;6.28;;;3.60;;
50683;SDS011;36654;45.042;38.994;2022-07-23T06:57:24;6.60;;;3.95;;
50683;SDS011;36654;45.042;38.994;2022-07-23T06:59:50;6.65;;;3.60;;
50683;SDS011;36654;45.042;38.994;2022-07-23T07:02:16;8.00;;;4.25;;
50683;SDS011;36654;45.042;38.994;2022-07-23T07:04:42;6.05;;;3.90;;
50683;SDS011;36654;45.042;38.994;2022-07-23T07:07:08;8.13;;;4.07;;
50683;SDS011;36654;45.042;38.994;2022-07-23T07:09:34;5.93;;;3.88;;
50683;SDS011;36654;45.042;38.994;2022-07-23T07:11:59;6.55;;;3.58;;
50683;SDS011;36654;45.042;38.994;2022-07-23T07:14:25;6.63;;;3.25;;
50683;SDS011;36654;45.042;38.994;2022-07-23T07:16:51;5.65;;;3.55;;
50683;SDS011;36654;45.042;38.994;2022-07-23T07:19:16;6.63;;;3.10;;
50683;SDS011;36654;45.042;38.994;2022-07-23T07:21:42;5.78;;;3.38;;
50683;SDS011;36654;45.042;38.994;2022-07-23T07:24:08;5.55;;;3.30;;
50683;SDS011;36654;45.042;38.994;2022-07-23T07:26:33;6.10;;;3.35;;
50683;SDS011;36654;45.042;38.994;2022-07-23T07:28:59;5.55;;;3.00;;
50683;SDS011;36654;45.042;38.994;2022-07-23T07:31:25;6.07;;;2.78;;
50683;SDS011;36654;45.042;38.994;2022-07-23T07:33:51;7.32;;;3.00;;
50683;SDS011;36654;45.042;38.994;2022-07-23T07:36:17;5.35;;;3.15;;
50683;SDS011;36654;45.042;38.994;2022-07-23T07:38:42;7.18;;;3.30;;
50683;SDS011;36654;45.042;38.994;2022-07-23T07:41:08;7.10;;;3.53;;
50683;SDS011;36654;45.042;38.994;2022-07-23T07:43:35;6.55;;;3.28;;
50683;SDS011;36654;45.042;38.994;2022-07-23T07:46:01;7.68;;;3.75;;
50683;SDS011;36654;45.042;38.994;2022-07-23T07:48:28;5.57;;;3.38;;
50683;SDS011;36654;45.042;38.994;2022-07-23T07:50:53;5.90;;;2.80;;
50683;SDS011;36654;45.042;38.994;2022-07-23T07:53:19;5.30;;;2.80;;
50683;SDS011;36654;45.042;38.994;2022-07-23T07:55:45;5.38;;;3.10;;
50683;SDS011;36654;45.042;38.994;2022-07-23T07:58:11;4.95;;;3.35;;
50683;SDS011;36654;45.042;38.994;2022-07-23T08:00:36;6.68;;;3.72;;
50683;SDS011;36654;45.042;38.994;2022-07-23T08:03:02;5.72;;;3.45;;
50683;SDS011;36654;45.042;38.994;2022-07-23T08:05:28;6.95;;;3.20;;
50683;SDS011;36654;45.042;38.994;2022-07-23T08:07:55;5.57;;;3.35;;
50683;SDS011;36654;45.042;38.994;2022-07-23T08:10:22;6.47;;;2.88;;
50683;SDS011;36654;45.042;38.994;2022-07-23T08:12:51;6.00;;;2.65;;
50683;SDS011;36654;45.042;38.994;2022-07-23T08:15:19;7.10;;;3.17;;
50683;SDS011;36654;45.042;38.994;2022-07-23T08:17:46;5.00;;;3.25;;
50683;SDS011;36654;45.042;38.994;2022-07-23T08:20:14;7.65;;;3.45;;
50683;SDS011;36654;45.042;38.994;2022-07-23T08:22:49;5.53;;;2.67;;
50683;SDS011;36654;45.042;38.994;2022-07-23T08:25:21;6.35;;;2.70;;
50683;SDS011;36654;45.042;38.994;2022-07-23T08:27:51;4.55;;;2.45;;
50683;SDS011;36654;45.042;38.994;2022-07-23T08:30:17;4.32;;;1.98;;
50683;SDS011;36654;45.042;38.994;2022-07-23T08:35:23;4.90;;;2.25;;
50683;SDS011;36654;45.042;38.994;2022-07-23T08:37:51;4.40;;;2.10;;
50683;SDS011;36654;45.042;38.994;2022-07-23T08:40:17;3.97;;;2.20;;
50683;SDS011;36654;45.042;38.994;2022-07-23T08:42:43;4.88;;;2.35;;
50683;SDS011;36654;45.042;38.994;2022-07-23T08:45:12;5.28;;;2.10;;
50683;SDS011;36654;45.042;38.994;2022-07-23T08:47:38;5.10;;;2.40;;
50683;SDS011;36654;45.042;38.994;2022-07-23T08:50:04;4.07;;;2.10;;
50683;SDS011;36654;45.042;38.994;2022-07-23T08:52:32;4.13;;;2.10;;
50683;SDS011;36654;45.042;38.994;2022-07-23T08:54:59;5.00;;;2.35;;
50683;SDS011;36654;45.042;38.994;2022-07-23T08:57:25;3.80;;;1.50;;
50683;SDS011;36654;45.042;38.994;2022-07-23T08:59:50;3.28;;;1.60;;
50683;SDS011;36654;45.042;38.994;2022-07-23T09:02:16;3.25;;;1.60;;
50683;SDS011;36654;45.042;38.994;2022-07-23T09:04:42;3.75;;;1.83;;
50683;SDS011;36654;45.042;38.994;2022-07-23T09:07:08;4.82;;;1.73;;
50683;SDS011;36654;45.042;38.994;2022-07-23T09:09:34;5.35;;;1.70;;
50683;SDS011;36654;45.042;38.994;2022-07-23T09:12:06;4.22;;;1.90;;
50683;SDS011;36654;45.042;38.994;2022-07-23T09:14:37;4.13;;;2.10;;
50683;SDS011;36654;45.042;38.994;2022-07-23T09:17:14;5.28;;;1.98;;
50683;SDS011;36654;45.042;38.994;2022-07-23T09:19:42;5.60;;;1.67;;
50683;SDS011;36654;45.042;38.994;2022-07-23T09:22:22;3.53;;;1.50;;
50683;SDS011;36654;45.042;38.994;2022-07-23T09:32:39;3.13;;;1.60;;
50683;SDS011;36654;45.042;38.994;2022-07-23T09:35:05;3.22;;;1.60;;
50683;SDS011;36654;45.042;38.994;2022-07-23T09:37:32;4.72;;;1.60;;
50683;SDS011;36654;45.042;38.994;2022-07-23T09:40:10;3.53;;;1.80;;
50683;SDS011;36654;45.042;38.994;2022-07-23T09:42:38;4.20;;;1.52;;
50683;SDS011;36654;45.042;38.994;2022-07-23T09:45:04;4.90;;;1.63;;
50683;SDS011;36654;45.042;38.994;2022-07-23T09:47:37;5.05;;;1.63;;
50683;SDS011;36654;45.042;38.994;2022-07-23T09:50:03;3.47;;;1.80;;
50683;SDS011;36654;45.042;38.994;2022-07-23T09:52:32;3.40;;;1.55;;
50683;SDS011;36654;45.042;38.994;2022-07-23T09:55:00;4.25;;;1.83;;
50683;SDS011;36654;45.042;38.994;2022-07-23T09:57:28;4.22;;;1.60;;
50683;SDS011;36654;45.042;38.994;2022-07-23T09:59:57;3.75;;;1.50;;
50683;SDS011;36654;45.042;38.994;2022-07-23T10:02:25;3.22;;;1.60;;
50683;SDS011;36654;45.042;38.994;2022-07-23T10:04:53;3.15;;;1.60;;
50683;SDS011;36654;45.042;38.994;2022-07-23T10:07:21;3.58;;;1.67;;
50683;SDS011;36654;45.042;38.994;2022-07-23T10:09:48;4.22;;;1.90;;
50683;SDS011;36654;45.042;38.994;2022-07-23T10:12:18;3.63;;;1.50;;
50683;SDS011;36654;45.042;38.994;2022-07-23T10:14:47;3.85;;;1.70;;
50683;SDS011;36654;45.042;38.994;2022-07-23T10:17:14;5.70;;;1.70;;
50683;SDS011;36654;45.042;38.994;2022-07-23T10:19:40;3.58;;;1.38;;
50683;SDS011;36654;45.042;38.994;2022-07-23T10:22:08;3.80;;;1.48;;
50683;SDS011;36654;45.042;38.994;2022-07-23T10:30:12;7.70;;;2.17;;
50683;SDS011;36654;45.042;38.994;2022-07-23T10:35:26;5.10;;;1.50;;
50683;SDS011;36654;45.042;38.994;2022-07-23T10:38:16;2.95;;;1.40;;
50683;SDS011;36654;45.042;38.994;2022-07-23T10:40:59;2.80;;;1.40;;
50683;SDS011;36654;45.042;38.994;2022-07-23T10:43:27;4.78;;;1.60;;
50683;SDS011;36654;45.042;38.994;2022-07-23T10:45:54;3.53;;;1.60;;
50683;SDS011;36654;45.042;38.994;2022-07-23T10:48:21;2.75;;;1.40;;
50683;SDS011;36654;45.042;38.994;2022-07-23T10:59:23;3.58;;;1.38;;
50683;SDS011;36654;45.042;38.994;2022-07-23T11:01:49;5.00;;;1.45;;
50683;SDS011;36654;45.042;38.994;2022-07-23T11:04:14;3.70;;;1.52;;
50683;SDS011;36654;45.042;38.994;2022-07-23T11:09:38;4.55;;;1.63;;
50683;SDS011;36654;45.042;38.994;2022-07-23T11:17:28;3.53;;;1.60;;
50683;SDS011;36654;45.042;38.994;2022-07-23T11:25:03;3.67;;;1.30;;
50683;SDS011;36654;45.042;38.994;2022-07-23T11:27:39;4.65;;;1.73;;
50683;SDS011;36654;45.042;38.994;2022-07-23T11:30:07;3.08;;;1.50;;
50683;SDS011;36654;45.042;38.994;2022-07-23T11:32:39;3.58;;;1.40;;
50683;SDS011;36654;45.042;38.994;2022-07-23T11:35:24;3.60;;;1.50;;
50683;SDS011;36654;45.042;38.994;2022-07-23T11:38:02;3.97;;;1.70;;
50683;SDS011;36654;45.042;38.994;2022-07-23T11:40:30;4.00;;;1.70;;
50683;SDS011;36654;45.042;38.994;2022-07-23T11:42:56;3.55;;;1.48;;
50683;SDS011;36654;45.042;38.994;2022-07-23T11:45:46;5.30;;;1.85;;
50683;SDS011;36654;45.042;38.994;2022-07-23T11:48:22;3.45;;;1.50;;
50683;SDS011;36654;45.042;38.994;2022-07-23T11:53:23;3.90;;;1.33;;
50683;SDS011;36654;45.042;38.994;2022-07-23T11:55:50;3.47;;;1.52;;
50683;SDS011;36654;45.042;38.994;2022-07-23T11:58:17;4.72;;;1.80;;
50683;SDS011;36654;45.042;38.994;2022-07-23T12:00:42;3.22;;;1.63;;
50683;SDS011;36654;45.042;38.994;2022-07-23T12:03:08;4.32;;;1.80;;
50683;SDS011;36654;45.042;38.994;2022-07-23T12:05:34;4.15;;;1.70;;
50683;SDS011;36654;45.042;38.994;2022-07-23T12:08:05;3.45;;;1.70;;
50683;SDS011;36654;45.042;38.994;2022-07-23T12:10:39;4.68;;;1.98;;
50683;SDS011;36654;45.042;38.994;2022-07-23T12:13:19;4.70;;;2.05;;
50683;SDS011;36654;45.042;38.994;2022-07-23T12:15:50;5.00;;;2.40;;
50683;SDS011;36654;45.042;38.994;2022-07-23T12:18:21;5.25;;;2.00;;
50683;SDS011;36654;45.042;38.994;2022-07-23T12:20:49;3.70;;;1.90;;
50683;SDS011;36654;45.042;38.994;2022-07-23T12:23:17;4.35;;;1.80;;
50683;SDS011;36654;45.042;38.994;2022-07-23T12:25:44;5.13;;;1.92;;
50683;SDS011;36654;45.042;38.994;2022-07-23T12:30:40;3.85;;;1.70;;
50683;SDS011;36654;45.042;38.994;2022-07-23T12:33:11;4.65;;;1.60;;
50683;SDS011;36654;45.042;38.994;2022-07-23T12:35:39;4.25;;;2.08;;
50683;SDS011;36654;45.042;38.994;2022-07-23T12:38:08;3.88;;;1.80;;
50683;SDS011;36654;45.042;38.994;2022-07-23T12:40:37;5.93;;;2.00;;
50683;SDS011;36654;45.042;38.994;2022-07-23T12:43:10;4.25;;;1.95;;
50683;SDS011;36654;45.042;38.994;2022-07-23T12:45:49;4.05;;;1.55;;
50683;SDS011;36654;45.042;38.994;2022-07-23T12:48:17;6.70;;;1.90;;
50683;SDS011;36654;45.042;38.994;2022-07-23T12:53:21;3.67;;;1.90;;
50683;SDS011;36654;45.042;38.994;2022-07-23T12:55:50;5.57;;;1.80;;
50683;SDS011;36654;45.042;38.994;2022-07-23T12:58:23;3.70;;;1.80;;
50683;SDS011;36654;45.042;38.994;2022-07-23T13:01:02;4.63;;;2.10;;
50683;SDS011;36654;45.042;38.994;2022-07-23T13:03:30;4.47;;;2.10;;
50683;SDS011;36654;45.042;38.994;2022-07-23T13:06:10;4.75;;;2.13;;
50683;SDS011;36654;45.042;38.994;2022-07-23T13:08:39;3.80;;;1.80;;
50683;SDS011;36654;45.042;38.994;2022-07-23T13:11:05;4.40;;;2.05;;
50683;SDS011;36654;45.042;38.994;2022-07-23T13:13:32;3.92;;;2.03;;
50683;SDS011;36654;45.042;38.994;2022-07-23T13:15:59;6.30;;;2.50;;
50683;SDS011;36654;45.042;38.994;2022-07-23T13:18:26;4.72;;;2.20;;
50683;SDS011;36654;45.042;38.994;2022-07-23T13:20:53;4.65;;;2.10;;
50683;SDS011;36654;45.042;38.994;2022-07-23T13:23:19;4.65;;;2.47;;
50683;SDS011;36654;45.042;38.994;2022-07-23T13:25:45;5.35;;;2.20;;
50683;SDS011;36654;45.042;38.994;2022-07-23T13:28:11;5.70;;;2.53;;
50683;SDS011;36654;45.042;38.994;2022-07-23T13:30:38;4.78;;;2.47;;
50683;SDS011;36654;45.042;38.994;2022-07-23T13:33:04;5.35;;;2.28;;
50683;SDS011;36654;45.042;38.994;2022-07-23T13:35:30;5.30;;;2.30;;
50683;SDS011;36654;45.042;38.994;2022-07-23T13:37:57;4.78;;;2.33;;
50683;SDS011;36654;45.042;38.994;2022-07-23T13:40:22;4.68;;;2.38;;
50683;SDS011;36654;45.042;38.994;2022-07-23T13:42:48;5.45;;;2.10;;
50683;SDS011;36654;45.042;38.994;2022-07-23T13:45:14;3.33;;;1.73;;
50683;SDS011;36654;45.042;38.994;2022-07-23T13:47:39;3.58;;;1.83;;
50683;SDS011;36654;45.042;38.994;2022-07-23T13:50:06;4.70;;;1.90;;
50683;SDS011;36654;45.042;38.994;2022-07-23T13:52:32;4.03;;;2.10;;
50683;SDS011;36654;45.042;38.994;2022-07-23T13:55:01;4.63;;;2.00;;
50683;SDS011;36654;45.042;38.994;2022-07-23T13:57:29;5.05;;;2.05;;
50683;SDS011;36654;45.042;38.994;2022-07-23T13:59:55;4.40;;;1.83;;
50683;SDS011;36654;45.042;38.994;2022-07-23T14:02:21;4.43;;;2.03;;
50683;SDS011;36654;45.042;38.994;2022-07-23T14:04:47;5.20;;;2.25;;
50683;SDS011;36654;45.042;38.994;2022-07-23T14:07:13;6.72;;;2.50;;
50683;SDS011;36654;45.042;38.994;2022-07-23T14:09:39;4.68;;;2.30;;
50683;SDS011;36654;45.042;38.994;2022-07-23T14:12:05;4.22;;;2.25;;
50683;SDS011;36654;45.042;38.994;2022-07-23T14:14:31;4.22;;;2.20;;
50683;SDS011;36654;45.042;38.994;2022-07-23T14:16:56;6.63;;;2.38;;
50683;SDS011;36654;45.042;38.994;2022-07-23T14:19:22;4.72;;;2.30;;
50683;SDS011;36654;45.042;38.994;2022-07-23T14:21:48;7.63;;;3.10;;
50683;SDS011;36654;45.042;38.994;2022-07-23T14:24:14;4.78;;;2.58;;
50683;SDS011;36654;45.042;38.994;2022-07-23T14:26:40;5.07;;;2.95;;
50683;SDS011;36654;45.042;38.994;2022-07-23T14:29:06;4.55;;;2.65;;
50683;SDS011;36654;45.042;38.994;2022-07-23T14:31:32;4.90;;;2.72;;
50683;SDS011;36654;45.042;38.994;2022-07-23T14:33:57;5.35;;;2.92;;
50683;SDS011;36654;45.042;38.994;2022-07-23T14:36:24;7.03;;;2.60;;
50683;SDS011;36654;45.042;38.994;2022-07-23T14:38:51;5.97;;;3.22;;
50683;SDS011;36654;45.042;38.994;2022-07-23T14:41:17;6.60;;;2.80;;
50683;SDS011;36654;45.042;38.994;2022-07-23T14:43:43;5.88;;;2.88;;
50683;SDS011;36654;45.042;38.994;2022-07-23T14:46:09;6.18;;;3.10;;
50683;SDS011;36654;45.042;38.994;2022-07-23T14:48:36;6.57;;;3.30;;
50683;SDS011;36654;45.042;38.994;2022-07-23T14:51:02;5.90;;;3.08;;
50683;SDS011;36654;45.042;38.994;2022-07-23T14:53:28;5.15;;;2.83;;
50683;SDS011;36654;45.042;38.994;2022-07-23T14:55:55;7.25;;;2.80;;
50683;SDS011;36654;45.042;38.994;2022-07-23T14:58:22;4.70;;;2.67;;
50683;SDS011;36654;45.042;38.994;2022-07-23T15:00:48;6.03;;;3.05;;
50683;SDS011;36654;45.042;38.994;2022-07-23T15:03:15;6.03;;;2.83;;
50683;SDS011;36654;45.042;38.994;2022-07-23T15:05:41;4.82;;;2.72;;
50683;SDS011;36654;45.042;38.994;2022-07-23T15:08:06;5.03;;;2.78;;
50683;SDS011;36654;45.042;38.994;2022-07-23T15:10:32;5.93;;;3.45;;
50683;SDS011;36654;45.042;38.994;2022-07-23T15:12:58;6.53;;;2.78;;
50683;SDS011;36654;45.042;38.994;2022-07-23T15:15:24;4.78;;;2.63;;
50683;SDS011;36654;45.042;38.994;2022-07-23T15:17:49;5.68;;;3.03;;
50683;SDS011;36654;45.042;38.994;2022-07-23T15:20:15;5.95;;;3.00;;